createdAt,value
2017-07-03T00:01:43.161Z,2.80
2017-07-03T00:04:17.638Z,2.47
2017-07-03T00:06:52.051Z,3.40
2017-07-03T00:09:27.289Z,3.25
2017-07-03T00:12:01.886Z,2.60
2017-07-03T00:14:36.398Z,2.25
2017-07-03T00:17:11.209Z,2.15
2017-07-03T00:19:46.492Z,2.30
2017-07-03T00:22:20.882Z,2.40
2017-07-03T00:24:55.341Z,1.95
2017-07-03T00:27:29.682Z,2.42
2017-07-03T00:30:04.198Z,2.58
2017-07-03T00:32:38.629Z,2.95
2017-07-03T00:35:13.078Z,2.45
2017-07-03T00:37:47.485Z,2.35
2017-07-03T00:40:21.988Z,1.85
2017-07-03T00:42:56.426Z,2.22
2017-07-03T00:45:30.872Z,2.30
2017-07-03T00:48:05.356Z,2.35
2017-07-03T00:50:40.655Z,2.97
2017-07-03T00:53:15.233Z,3.65
2017-07-03T00:55:49.708Z,2.40
2017-07-03T00:58:24.121Z,1.92
2017-07-03T01:00:58.669Z,1.55
2017-07-03T01:03:33.068Z,2.03
2017-07-03T01:06:07.558Z,2.08
2017-07-03T01:08:41.952Z,1.90
2017-07-03T01:11:16.318Z,3.50
2017-07-03T01:13:50.728Z,3.05
2017-07-03T01:16:25.277Z,2.90
2017-07-03T01:18:59.772Z,2.25
2017-07-03T01:21:34.972Z,2.25
2017-07-03T01:24:09.453Z,1.75
2017-07-03T01:26:43.847Z,2.10
2017-07-03T01:29:18.388Z,2.35
2017-07-03T01:31:52.740Z,2.42
2017-07-03T01:34:27.267Z,1.98
2017-07-03T01:37:02.558Z,2.22
2017-07-03T01:39:36.961Z,2.70
2017-07-03T01:42:12.309Z,1.87
2017-07-03T01:44:47.670Z,3.72
2017-07-03T01:47:22.080Z,2.75
2017-07-03T01:49:56.743Z,2.42
2017-07-03T01:52:31.232Z,2.72
2017-07-03T01:55:05.593Z,2.00
2017-07-03T01:57:40.097Z,2.85
2017-07-03T02:00:14.525Z,2.22
2017-07-03T02:02:49.008Z,2.42
2017-07-03T02:05:23.397Z,2.47
2017-07-03T02:07:58.185Z,2.47
2017-07-03T02:10:32.717Z,2.55
2017-07-03T02:13:07.043Z,2.80
2017-07-03T02:15:41.551Z,2.10
2017-07-03T02:18:16.049Z,3.08
2017-07-03T02:20:50.472Z,1.92
2017-07-03T02:23:24.992Z,2.67
2017-07-03T02:25:59.427Z,2.75
2017-07-03T02:28:33.961Z,2.70
2017-07-03T02:31:08.382Z,2.80
2017-07-03T02:33:42.890Z,3.25
2017-07-03T02:36:17.233Z,2.37
2017-07-03T02:38:51.631Z,2.58
2017-07-03T02:41:26.141Z,3.10
2017-07-03T02:44:00.649Z,2.70
2017-07-03T02:46:35.143Z,2.35
2017-07-03T02:49:09.541Z,2.42
2017-07-03T02:57:47.676Z,3.08
2017-07-03T03:00:21.994Z,3.08
2017-07-03T03:02:57.344Z,2.65
2017-07-03T03:05:31.723Z,3.22
2017-07-03T03:08:06.183Z,2.40
2017-07-03T03:10:41.378Z,2.55
2017-07-03T03:13:16.714Z,3.05
2017-07-03T03:15:51.073Z,2.58
2017-07-03T03:18:25.604Z,2.12
2017-07-03T03:21:00.800Z,2.28
2017-07-03T03:23:35.417Z,2.35
2017-07-03T03:26:09.955Z,2.70
2017-07-03T03:28:45.107Z,1.98
2017-07-03T03:31:19.423Z,2.67
2017-07-03T03:33:54.048Z,2.50
2017-07-03T03:36:28.428Z,2.45
2017-07-03T03:39:02.886Z,2.30
2017-07-03T03:41:37.309Z,2.92
2017-07-03T03:44:12.042Z,2.85
2017-07-03T03:46:47.162Z,2.78
2017-07-03T03:49:21.691Z,2.30
2017-07-03T03:51:56.222Z,2.10
2017-07-03T03:54:30.634Z,2.95
2017-07-03T03:57:05.928Z,2.80
2017-07-03T03:59:40.527Z,1.95
2017-07-03T04:02:14.956Z,3.40
2017-07-03T04:04:49.552Z,2.83
2017-07-03T04:07:24.003Z,2.60
2017-07-03T04:09:58.415Z,2.62
2017-07-03T04:12:32.989Z,2.03
2017-07-03T04:15:07.388Z,2.28
2017-07-03T04:17:42.611Z,2.60
2017-07-03T04:20:17.096Z,2.15
2017-07-03T04:22:51.679Z,3.35
2017-07-03T04:25:26.351Z,2.25
2017-07-03T04:28:00.795Z,2.30
2017-07-03T04:30:36.007Z,2.90
2017-07-03T04:33:10.356Z,3.15
2017-07-03T04:35:44.953Z,2.45
2017-07-03T04:38:20.120Z,2.22
2017-07-03T04:40:54.528Z,1.87
2017-07-03T04:43:29.096Z,2.37
2017-07-03T04:46:03.538Z,2.87
2017-07-03T04:48:38.035Z,2.40
2017-07-03T04:51:12.554Z,2.95
2017-07-03T04:53:47.077Z,3.47
2017-07-03T04:56:21.615Z,2.40
2017-07-03T04:58:56.116Z,1.90
2017-07-03T05:01:30.556Z,3.37
2017-07-03T05:04:05.032Z,1.52
2017-07-03T05:06:39.640Z,2.50
2017-07-03T05:09:14.149Z,2.22
2017-07-03T05:11:48.776Z,2.72
2017-07-03T05:14:23.361Z,1.92
2017-07-03T05:16:57.849Z,2.35
2017-07-03T05:19:32.327Z,2.60
2017-07-03T05:22:06.708Z,2.65
2017-07-03T05:24:41.196Z,2.00
2017-07-03T05:27:16.493Z,2.37
2017-07-03T05:29:50.972Z,2.35
2017-07-03T05:32:26.453Z,2.92
2017-07-03T05:35:00.829Z,1.48
2017-07-03T05:37:35.505Z,2.00
2017-07-03T05:40:10.013Z,2.47
2017-07-03T05:42:50.979Z,1.92
2017-07-03T05:45:25.368Z,2.55
2017-07-03T05:48:00.557Z,2.85
2017-07-03T05:50:35.062Z,2.50
2017-07-03T05:53:09.784Z,2.70
2017-07-03T05:55:44.248Z,3.20
2017-07-03T05:58:18.775Z,2.62
2017-07-03T06:00:53.339Z,1.92
2017-07-03T06:03:28.089Z,1.98
2017-07-03T06:06:02.582Z,2.40
2017-07-03T06:08:37.019Z,2.05
2017-07-03T06:11:11.408Z,2.20
2017-07-03T06:13:46.282Z,1.52
2017-07-03T06:16:20.654Z,2.45
2017-07-03T06:18:55.077Z,2.80
2017-07-03T06:21:29.468Z,2.22
2017-07-03T06:24:04.281Z,2.42
2017-07-03T06:26:38.867Z,2.70
2017-07-03T06:29:13.316Z,1.85
2017-07-03T06:31:47.924Z,2.55
2017-07-03T06:34:22.568Z,1.65
2017-07-03T06:36:57.172Z,1.95
2017-07-03T06:39:31.626Z,2.10
2017-07-03T06:42:09.008Z,2.58
2017-07-03T06:44:43.757Z,2.40
2017-07-03T06:50:22.227Z,2.15
2017-07-03T06:52:56.610Z,2.65
2017-07-03T06:55:31.884Z,1.92
2017-07-03T06:58:06.396Z,1.92
2017-07-03T07:00:40.805Z,2.20
2017-07-03T07:03:15.337Z,2.20
2017-07-03T07:05:49.686Z,2.30
2017-07-03T07:08:24.174Z,1.95
2017-07-03T07:10:58.596Z,2.50
2017-07-03T07:13:33.058Z,1.90
2017-07-03T07:16:07.429Z,2.20
2017-07-03T07:18:41.921Z,2.00
2017-07-03T07:21:16.441Z,2.87
2017-07-03T07:23:50.942Z,2.28
2017-07-03T07:26:25.436Z,3.20
2017-07-03T07:29:00.729Z,2.53
2017-07-03T07:31:36.016Z,2.42
2017-07-03T07:34:10.409Z,2.45
2017-07-03T07:36:45.044Z,3.00
2017-07-03T07:39:19.421Z,1.90
2017-07-03T07:41:53.891Z,2.30
2017-07-03T07:44:28.258Z,2.40
2017-07-03T07:47:03.033Z,3.10
2017-07-03T07:49:37.539Z,2.70
2017-07-03T07:52:11.960Z,2.45
2017-07-03T07:54:46.461Z,2.47
2017-07-03T07:57:20.880Z,2.65
2017-07-03T07:59:55.334Z,2.62
2017-07-03T08:02:29.735Z,2.80
2017-07-03T08:05:04.165Z,3.10
2017-07-03T08:07:38.560Z,2.60
2017-07-03T08:10:13.102Z,2.62
2017-07-03T08:12:47.534Z,2.90
2017-07-03T08:15:21.980Z,2.75
2017-07-03T08:17:56.574Z,2.75
2017-07-03T08:20:30.989Z,2.40
2017-07-03T08:23:05.345Z,2.92
2017-07-03T08:25:39.801Z,2.45
2017-07-03T08:28:14.349Z,2.45
2017-07-03T08:30:48.854Z,2.03
2017-07-03T08:33:23.277Z,2.28
2017-07-03T08:35:57.645Z,1.85
2017-07-03T08:38:32.052Z,2.90
2017-07-03T08:41:06.523Z,2.58
2017-07-03T08:43:41.176Z,2.75
2017-07-03T08:46:15.691Z,2.17
2017-07-03T08:48:50.854Z,1.85
2017-07-03T08:51:25.333Z,1.80
2017-07-03T08:53:59.761Z,2.53
2017-07-03T08:56:35.048Z,2.30
2017-07-03T08:59:09.562Z,2.22
2017-07-03T09:01:44.139Z,2.05
2017-07-03T09:04:18.537Z,1.98
2017-07-03T09:06:52.918Z,2.60
2017-07-03T09:09:27.310Z,2.90
2017-07-03T09:12:01.735Z,2.75
2017-07-03T09:14:36.151Z,3.45
2017-07-03T09:17:10.668Z,2.87
2017-07-03T09:19:45.117Z,3.20
2017-07-03T09:22:19.599Z,3.53
2017-07-03T09:24:54.069Z,2.67
2017-07-03T09:27:28.526Z,3.80
2017-07-03T09:30:02.981Z,4.00
2017-07-03T09:32:38.286Z,5.68
2017-07-03T09:35:12.848Z,4.30
2017-07-03T09:37:47.345Z,4.45
2017-07-03T09:40:21.777Z,3.72
2017-07-03T09:42:56.158Z,3.60
2017-07-03T09:45:30.492Z,3.58
2017-07-03T09:48:05.017Z,3.65
2017-07-03T09:50:39.465Z,4.00
2017-07-03T09:53:13.955Z,3.70
2017-07-03T09:55:48.477Z,2.58
2017-07-03T09:58:23.010Z,2.95
2017-07-03T10:00:57.648Z,3.03
2017-07-03T10:03:32.015Z,3.47
2017-07-03T10:06:06.481Z,3.40
2017-07-03T10:08:43.909Z,2.55
2017-07-03T10:11:18.393Z,2.72
2017-07-03T10:13:52.795Z,2.90
2017-07-03T10:16:28.065Z,2.42
2017-07-03T10:19:03.006Z,3.05
2017-07-03T10:21:38.498Z,3.10
2017-07-03T10:24:13.040Z,2.47
2017-07-03T10:26:47.673Z,2.60
2017-07-03T10:29:22.086Z,2.40
2017-07-03T10:31:56.445Z,2.53
2017-07-03T10:34:30.830Z,2.37
2017-07-03T10:37:07.731Z,1.87
2017-07-03T10:39:42.013Z,2.17
2017-07-03T10:42:16.405Z,2.40
2017-07-03T10:44:51.371Z,1.67
2017-07-03T10:47:25.943Z,2.12
2017-07-03T10:50:00.300Z,2.20
2017-07-03T10:52:34.732Z,1.73
2017-07-03T10:55:18.489Z,2.20
2017-07-03T10:57:53.828Z,2.17
2017-07-03T11:00:28.345Z,2.60
2017-07-03T11:03:02.737Z,1.60
2017-07-03T11:05:37.101Z,1.75
2017-07-03T11:08:11.569Z,1.55
2017-07-03T11:10:46.109Z,2.22
2017-07-03T11:13:20.594Z,1.87
2017-07-03T11:15:55.162Z,1.87
2017-07-03T11:18:29.692Z,2.05
2017-07-03T11:21:04.056Z,2.40
2017-07-03T11:23:38.499Z,2.30
2017-07-03T11:26:13.739Z,1.90
2017-07-03T11:28:48.390Z,2.30
2017-07-03T11:31:22.876Z,1.92
2017-07-03T11:33:57.325Z,2.50
2017-07-03T11:36:31.831Z,2.05
2017-07-03T11:39:06.192Z,2.92
2017-07-03T11:41:40.790Z,1.45
2017-07-03T11:44:15.303Z,2.53
2017-07-03T11:46:49.680Z,2.65
2017-07-03T11:49:24.070Z,2.67
2017-07-03T11:51:58.536Z,2.15
2017-07-03T11:54:32.888Z,2.17
2017-07-03T11:57:07.373Z,3.10
2017-07-03T11:59:42.001Z,2.75
2017-07-03T12:02:16.541Z,2.05
2017-07-03T12:04:51.187Z,2.22
2017-07-03T12:07:25.520Z,2.10
2017-07-03T12:10:00.733Z,2.22
2017-07-03T12:12:35.850Z,2.33
2017-07-03T12:15:11.417Z,2.40
2017-07-03T12:17:45.794Z,2.20
2017-07-03T12:20:20.161Z,1.83
2017-07-03T12:22:54.541Z,2.58
2017-07-03T12:25:28.987Z,2.72
2017-07-03T12:28:03.409Z,2.35
2017-07-03T12:30:38.870Z,2.78
2017-07-03T12:33:13.216Z,2.85
2017-07-03T12:35:49.079Z,2.50
2017-07-03T12:38:24.319Z,2.62
2017-07-03T12:40:58.982Z,2.30
2017-07-03T12:43:33.384Z,3.78
2017-07-03T12:46:07.789Z,2.08
2017-07-03T12:48:42.365Z,2.20
2017-07-03T12:51:16.893Z,2.60
2017-07-03T12:53:51.269Z,2.45
2017-07-03T12:56:25.818Z,3.00
2017-07-03T12:59:00.305Z,1.90
2017-07-03T13:01:34.962Z,2.70
2017-07-03T13:04:09.546Z,2.33
2017-07-03T13:06:45.001Z,2.50
2017-07-03T13:09:19.379Z,2.28
2017-07-03T13:11:53.790Z,2.72
2017-07-03T13:14:28.313Z,2.75
2017-07-03T13:17:03.730Z,2.10
2017-07-03T13:19:38.216Z,3.25
2017-07-03T13:22:12.757Z,2.53
2017-07-03T13:24:47.236Z,2.20
2017-07-03T13:27:21.689Z,2.30
2017-07-03T13:29:56.089Z,2.95
2017-07-03T13:32:30.621Z,3.05
2017-07-03T13:35:05.837Z,2.87
2017-07-03T13:37:40.305Z,3.58
2017-07-03T13:40:14.757Z,3.10
2017-07-03T13:42:50.044Z,2.83
2017-07-03T13:45:25.260Z,3.70
2017-07-03T13:47:59.717Z,2.40
2017-07-03T13:50:34.207Z,3.25
2017-07-03T13:53:08.683Z,2.80
2017-07-03T13:55:43.836Z,2.30
2017-07-03T13:58:18.396Z,2.60
2017-07-03T14:00:52.764Z,2.33
2017-07-03T14:03:27.386Z,2.35
2017-07-03T14:06:01.754Z,2.35
2017-07-03T14:08:36.122Z,2.80
2017-07-03T14:11:10.656Z,3.20
2017-07-03T14:13:45.847Z,2.47
2017-07-03T14:16:20.340Z,2.67
2017-07-03T14:18:54.781Z,2.90
2017-07-03T14:21:29.309Z,2.33
2017-07-03T14:24:04.653Z,3.03
2017-07-03T14:26:39.849Z,2.27
2017-07-03T14:29:14.413Z,2.62
2017-07-03T14:34:56.853Z,3.28
2017-07-03T14:37:31.655Z,3.67
2017-07-03T14:40:06.110Z,2.75
2017-07-03T14:42:40.641Z,3.00
2017-07-03T14:45:15.117Z,2.90
2017-07-03T14:47:49.653Z,2.50
2017-07-03T14:50:24.044Z,2.72
2017-07-03T14:52:58.574Z,3.40
2017-07-03T14:55:32.976Z,3.10
2017-07-03T14:58:07.360Z,2.57
2017-07-03T15:00:41.848Z,2.67
2017-07-03T15:03:16.248Z,2.97
2017-07-03T15:05:51.509Z,3.03
2017-07-03T15:08:25.801Z,3.42
2017-07-03T15:11:00.345Z,3.62
2017-07-03T15:13:34.857Z,4.30
2017-07-03T15:16:09.206Z,3.83
2017-07-03T15:18:43.690Z,4.78
2017-07-03T15:21:18.129Z,6.20
2017-07-03T15:23:52.601Z,5.90
2017-07-03T15:26:27.177Z,5.03
2017-07-03T15:29:01.657Z,5.37
2017-07-03T15:31:36.125Z,5.62
2017-07-03T15:34:10.572Z,4.50
2017-07-03T15:36:45.030Z,5.15
2017-07-03T15:39:19.429Z,6.95
2017-07-03T15:41:53.920Z,5.47
2017-07-03T15:44:28.408Z,6.00
2017-07-03T15:47:03.576Z,6.43
2017-07-03T15:49:37.947Z,4.97
2017-07-03T15:52:12.377Z,5.43
2017-07-03T15:54:46.885Z,5.55
2017-07-03T15:57:21.356Z,4.65
2017-07-03T15:59:55.878Z,5.28
2017-07-03T16:02:30.351Z,6.82
2017-07-03T16:05:04.845Z,6.65
2017-07-03T16:07:39.220Z,7.68
2017-07-03T16:10:13.733Z,8.57
2017-07-03T16:12:48.261Z,9.43
2017-07-03T16:15:22.769Z,10.80
2017-07-03T16:17:57.189Z,7.95
2017-07-03T16:20:31.701Z,7.95
2017-07-03T16:23:06.340Z,10.00
2017-07-03T16:25:40.845Z,8.20
2017-07-03T16:28:15.365Z,8.45
2017-07-03T16:30:49.869Z,7.78
2017-07-03T16:33:24.322Z,7.03
2017-07-03T16:35:58.672Z,6.25
2017-07-03T16:38:33.192Z,6.65
2017-07-03T16:41:07.661Z,5.57
2017-07-03T16:43:42.010Z,3.12
2017-07-03T16:46:16.551Z,6.07
2017-07-03T16:48:51.361Z,4.12
2017-07-03T16:51:25.844Z,4.40
2017-07-03T16:54:00.300Z,5.62
2017-07-03T16:56:34.803Z,5.25
2017-07-03T16:59:09.133Z,5.18
2017-07-03T17:01:43.448Z,4.47
2017-07-03T17:04:17.894Z,3.90
2017-07-03T17:06:52.384Z,4.28
2017-07-03T17:09:27.399Z,3.58
2017-07-03T17:12:01.836Z,4.90
2017-07-03T17:14:36.259Z,4.87
2017-07-03T17:17:10.713Z,4.32
2017-07-03T17:19:45.348Z,4.90
2017-07-03T17:22:19.828Z,4.25
2017-07-03T17:24:54.229Z,3.60
2017-07-03T17:27:28.666Z,4.43
2017-07-03T17:30:03.121Z,4.80
2017-07-03T17:32:37.532Z,4.70
2017-07-03T17:35:12.649Z,6.25
2017-07-03T17:37:46.958Z,7.03
2017-07-03T17:40:21.608Z,4.45
2017-07-03T17:42:56.166Z,4.15
2017-07-03T17:45:30.696Z,3.90
2017-07-03T17:48:05.672Z,4.50
2017-07-03T17:50:40.781Z,4.18
2017-07-03T17:53:15.128Z,4.32
2017-07-03T17:55:50.254Z,4.57
2017-07-03T17:58:24.553Z,4.03
2017-07-03T18:00:58.989Z,4.87
2017-07-03T18:03:33.501Z,5.00
2017-07-03T18:06:07.871Z,4.50
2017-07-03T18:08:42.444Z,4.93
2017-07-03T18:11:16.972Z,4.50
2017-07-03T18:13:51.473Z,4.25
2017-07-03T18:16:26.018Z,5.15
2017-07-03T18:19:02.085Z,4.32
2017-07-03T18:21:37.836Z,5.57
2017-07-03T18:24:12.284Z,5.28
2017-07-03T18:26:46.661Z,5.75
2017-07-03T18:29:21.029Z,6.43
2017-07-03T18:31:55.608Z,5.53
2017-07-03T18:34:30.124Z,5.15
2017-07-03T18:37:04.648Z,5.40
2017-07-03T18:39:39.145Z,5.28
2017-07-03T18:42:13.615Z,4.47
2017-07-03T18:44:48.009Z,5.00
2017-07-03T18:47:22.535Z,4.07
2017-07-03T18:49:57.764Z,4.10
2017-07-03T18:52:32.493Z,3.50
2017-07-03T18:55:07.009Z,3.55
2017-07-03T18:57:41.541Z,4.03
2017-07-03T19:00:15.880Z,3.72
2017-07-03T19:02:51.280Z,3.97
2017-07-03T19:05:26.413Z,3.75
2017-07-03T19:08:00.995Z,2.70
2017-07-03T19:10:35.574Z,3.12
2017-07-03T19:13:10.223Z,2.85
2017-07-03T19:15:44.735Z,3.42
2017-07-03T19:18:19.140Z,3.15
2017-07-03T19:20:53.989Z,3.78
2017-07-03T19:23:29.420Z,2.40
2017-07-03T19:26:03.736Z,3.50
2017-07-03T19:28:38.532Z,3.05
2017-07-03T19:31:13.366Z,2.83
2017-07-03T19:33:47.920Z,4.40
2017-07-03T19:36:22.433Z,2.78
2017-07-03T19:38:56.884Z,3.10
2017-07-03T19:41:31.340Z,3.15
2017-07-03T19:44:05.837Z,3.15
2017-07-03T19:46:40.297Z,3.65
2017-07-03T19:49:14.689Z,3.12
2017-07-03T19:51:49.205Z,3.05
2017-07-03T19:54:23.637Z,2.90
2017-07-03T19:56:58.160Z,3.35
2017-07-03T19:59:32.593Z,2.35
2017-07-03T20:02:07.179Z,3.25
2017-07-03T20:04:41.820Z,2.80
2017-07-03T20:07:16.254Z,3.22
2017-07-03T20:09:50.684Z,3.05
2017-07-03T20:12:25.165Z,2.30
2017-07-03T20:15:00.238Z,3.53
2017-07-03T20:17:34.730Z,3.55
2017-07-03T20:20:09.424Z,3.10
2017-07-03T20:22:44.435Z,3.92
2017-07-03T20:25:18.985Z,3.20
2017-07-03T20:27:53.518Z,4.00
2017-07-03T20:30:27.927Z,3.40
2017-07-03T20:33:02.517Z,2.97
2017-07-03T20:35:36.938Z,2.92
2017-07-03T20:38:11.419Z,2.45
2017-07-03T20:40:45.762Z,3.30
2017-07-03T20:43:20.253Z,4.12
2017-07-03T20:45:55.435Z,3.45
2017-07-03T20:48:29.801Z,4.12
2017-07-03T20:51:04.381Z,4.00
2017-07-03T20:53:38.884Z,4.22
2017-07-03T20:56:13.310Z,3.67
2017-07-03T20:58:47.826Z,4.15
2017-07-03T21:01:23.177Z,4.70
2017-07-03T21:03:57.566Z,3.53
2017-07-03T21:06:31.896Z,3.22
2017-07-03T21:09:07.001Z,4.35
2017-07-03T21:11:41.372Z,4.65
2017-07-03T21:14:15.847Z,3.87
2017-07-03T21:16:51.040Z,4.80
2017-07-03T21:19:25.412Z,3.60
2017-07-03T21:21:59.942Z,4.47
2017-07-03T21:24:36.401Z,4.37
2017-07-03T21:27:11.273Z,3.75
2017-07-03T21:29:46.360Z,3.97
2017-07-03T21:32:20.805Z,3.55
2017-07-03T21:34:56.046Z,3.90
2017-07-03T21:37:30.553Z,4.82
2017-07-03T21:40:05.044Z,4.75
2017-07-03T21:42:39.622Z,4.45
2017-07-03T21:45:14.120Z,3.65
2017-07-03T21:47:48.657Z,4.35
2017-07-03T21:50:23.169Z,3.78
2017-07-03T21:52:57.482Z,3.80
2017-07-03T21:55:32.714Z,4.03
2017-07-03T21:58:07.065Z,3.60
2017-07-03T22:00:41.552Z,4.05
2017-07-03T22:03:16.100Z,5.35
2017-07-03T22:05:50.610Z,3.92
2017-07-03T22:08:25.262Z,4.40
2017-07-03T22:10:59.701Z,3.65
2017-07-03T22:13:34.022Z,4.40
2017-07-03T22:16:08.467Z,3.60
2017-07-03T22:18:43.637Z,3.37
2017-07-03T22:21:18.148Z,4.00
2017-07-03T22:23:52.757Z,4.05
2017-07-03T22:26:27.884Z,3.58
2017-07-03T22:29:02.248Z,4.12
2017-07-03T22:31:36.731Z,4.22
2017-07-03T22:34:11.401Z,3.87
2017-07-03T22:36:45.831Z,3.75
2017-07-03T22:39:20.232Z,3.30
2017-07-03T22:41:54.747Z,2.90
2017-07-03T22:44:29.154Z,3.33
2017-07-03T22:47:03.632Z,4.40
2017-07-03T22:49:38.316Z,3.37
2017-07-03T22:52:12.820Z,3.05
2017-07-03T22:54:47.245Z,3.25
2017-07-03T22:57:21.775Z,3.58
2017-07-03T22:59:56.309Z,2.70
2017-07-03T23:02:30.898Z,3.70
2017-07-03T23:05:05.336Z,2.83
2017-07-03T23:07:39.785Z,2.80
2017-07-03T23:10:14.176Z,3.67
2017-07-03T23:12:48.697Z,2.97
2017-07-03T23:15:23.220Z,3.05
2017-07-03T23:17:57.615Z,2.72
2017-07-03T23:20:32.174Z,2.55
2017-07-03T23:23:06.656Z,2.92
2017-07-03T23:25:41.133Z,3.20
2017-07-03T23:28:15.596Z,2.90
2017-07-03T23:30:50.028Z,2.80
2017-07-03T23:33:24.516Z,3.65
2017-07-03T23:35:59.113Z,2.80
2017-07-03T23:38:34.280Z,3.10
2017-07-03T23:41:08.761Z,2.78
2017-07-03T23:43:43.348Z,2.60
2017-07-03T23:46:17.785Z,3.53
2017-07-03T23:48:52.294Z,3.97
2017-07-03T23:51:26.880Z,4.03
2017-07-03T23:54:01.221Z,3.40
2017-07-03T23:56:36.344Z,2.58
2017-07-03T23:59:10.700Z,3.50
